createdAt,value
2018-01-15T00:00:31.307Z,90.49
2018-01-15T00:01:31.291Z,90.20
2018-01-15T00:02:31.270Z,90.20
2018-01-15T00:03:31.245Z,90.01
2018-01-15T00:04:31.224Z,90.30
2018-01-15T00:05:31.195Z,90.11
2018-01-15T00:06:31.174Z,90.20
2018-01-15T00:07:31.145Z,89.64
2018-01-15T00:08:31.127Z,89.83
2018-01-15T00:09:31.102Z,89.83
2018-01-15T00:10:31.093Z,90.11
2018-01-15T00:11:31.054Z,90.30
2018-01-15T00:12:31.039Z,90.30
2018-01-15T00:13:31.012Z,89.92
2018-01-15T00:14:30.990Z,89.83
2018-01-15T00:15:30.961Z,90.20
2018-01-15T00:16:30.943Z,89.83
2018-01-15T00:17:30.919Z,90.30
2018-01-15T00:18:30.897Z,90.11
2018-01-15T00:19:30.877Z,90.30
2018-01-15T00:20:30.854Z,89.92
2018-01-15T00:21:30.840Z,89.92
2018-01-15T00:22:30.818Z,89.64
2018-01-15T00:23:30.785Z,90.11
2018-01-15T00:24:30.760Z,89.92
2018-01-15T00:25:30.737Z,89.83
2018-01-15T00:26:30.712Z,89.73
2018-01-15T00:27:30.689Z,89.92
2018-01-15T00:28:30.664Z,89.92
2018-01-15T00:29:30.645Z,89.64
2018-01-15T00:30:30.622Z,89.92
2018-01-15T00:31:30.601Z,90.11
2018-01-15T00:32:30.573Z,90.11
2018-01-15T00:33:30.562Z,90.11
2018-01-15T00:34:30.531Z,90.49
2018-01-15T00:35:30.513Z,90.68
2018-01-15T00:36:30.483Z,90.39
2018-01-15T00:37:30.459Z,89.83
2018-01-15T00:38:30.441Z,90.11
2018-01-15T00:39:30.416Z,90.30
2018-01-15T00:40:30.396Z,90.01
2018-01-15T00:41:30.370Z,90.01
2018-01-15T00:42:30.345Z,90.01
2018-01-15T00:43:30.322Z,89.64
2018-01-15T00:44:30.298Z,89.64
2018-01-15T00:45:30.275Z,89.92
2018-01-15T00:46:30.253Z,90.39
2018-01-15T00:47:30.228Z,90.68
2018-01-15T00:48:30.212Z,90.68
2018-01-15T00:49:30.185Z,90.68
2018-01-15T00:50:30.169Z,90.68
2018-01-15T00:51:30.139Z,90.58
2018-01-15T00:52:30.118Z,90.30
2018-01-15T00:53:30.096Z,90.68
2018-01-15T00:54:30.070Z,90.77
2018-01-15T00:55:30.045Z,90.39
2018-01-15T00:56:30.022Z,90.39
2018-01-15T00:57:30.013Z,91.34
2018-01-15T00:58:29.980Z,90.58
2018-01-15T00:59:29.958Z,91.34
2018-01-15T01:00:29.944Z,90.68
2018-01-15T01:01:29.917Z,90.68
2018-01-15T01:02:29.911Z,90.58
2018-01-15T01:03:29.861Z,91.43
2018-01-15T01:04:29.839Z,90.49
2018-01-15T01:05:29.822Z,90.30
2018-01-15T01:06:29.805Z,90.39
2018-01-15T01:07:29.773Z,90.77
2018-01-15T01:08:29.751Z,90.58
2018-01-15T01:09:29.735Z,90.49
2018-01-15T01:10:29.705Z,90.58
2018-01-15T01:11:29.685Z,90.30
2018-01-15T01:12:29.655Z,90.68
2018-01-15T01:13:29.633Z,90.68
2018-01-15T01:14:29.612Z,90.86
2018-01-15T01:15:29.587Z,90.44
2018-01-15T01:16:29.565Z,90.72
2018-01-15T01:17:29.548Z,90.77
2018-01-15T01:18:29.522Z,90.68
2018-01-15T01:19:29.495Z,90.39
2018-01-15T01:20:29.476Z,90.96
2018-01-15T01:21:29.451Z,90.39
2018-01-15T01:22:29.427Z,90.49
2018-01-15T01:23:29.402Z,90.39
2018-01-15T01:24:29.383Z,91.05
2018-01-15T01:25:29.368Z,90.39
2018-01-15T01:26:29.336Z,90.58
2018-01-15T01:27:29.309Z,90.96
2018-01-15T01:28:29.289Z,90.20
2018-01-15T01:29:29.265Z,90.86
2018-01-15T01:30:29.244Z,90.96
2018-01-15T01:31:29.220Z,90.11
2018-01-15T01:32:29.200Z,90.30
2018-01-15T01:33:29.173Z,90.30
2018-01-15T01:34:29.160Z,90.39
2018-01-15T01:35:29.135Z,90.86
2018-01-15T01:36:29.106Z,90.86
2018-01-15T01:37:29.085Z,90.96
2018-01-15T01:38:29.062Z,91.15
2018-01-15T01:39:29.037Z,91.15
2018-01-15T01:40:29.013Z,91.34
2018-01-15T01:41:28.994Z,91.34
2018-01-15T01:42:28.967Z,91.15
2018-01-15T01:43:28.946Z,91.15
2018-01-15T01:44:28.923Z,90.96
2018-01-15T01:45:28.900Z,90.96
2018-01-15T01:46:28.876Z,91.05
2018-01-15T01:47:28.863Z,91.05
2018-01-15T01:48:28.831Z,91.34
2018-01-15T01:49:28.808Z,91.05
2018-01-15T01:50:28.784Z,90.96
2018-01-15T01:51:28.761Z,91.05
2018-01-15T01:52:28.752Z,90.96
2018-01-15T01:53:28.718Z,90.82
2018-01-15T01:54:28.696Z,91.01
2018-01-15T01:55:28.673Z,90.58
2018-01-15T01:56:28.645Z,90.77
2018-01-15T01:57:28.625Z,91.10
2018-01-15T01:58:28.641Z,91.24
2018-01-15T01:59:28.587Z,91.29
2018-01-15T02:00:28.612Z,91.39
2018-01-15T02:01:28.530Z,90.72
2018-01-15T02:02:28.506Z,90.91
2018-01-15T02:03:28.485Z,90.91
2018-01-15T02:04:28.469Z,91.39
2018-01-15T02:05:28.443Z,90.96
2018-01-15T02:06:28.420Z,91.39
2018-01-15T02:07:28.402Z,91.10
2018-01-15T02:08:28.371Z,91.01
2018-01-15T02:09:28.356Z,90.58
2018-01-15T02:10:28.333Z,90.72
2018-01-15T02:11:28.351Z,90.96
2018-01-15T02:12:28.285Z,91.01
2018-01-15T02:13:28.256Z,90.63
2018-01-15T02:14:28.235Z,90.63
2018-01-15T02:15:28.213Z,91.01
2018-01-15T02:16:28.188Z,90.82
2018-01-15T02:17:28.165Z,90.82
2018-01-15T02:18:28.142Z,90.96
2018-01-15T02:19:28.120Z,90.91
2018-01-15T02:20:28.095Z,91.10
2018-01-15T02:21:28.075Z,91.05
2018-01-15T02:22:28.057Z,90.82
2018-01-15T02:23:28.029Z,91.01
2018-01-15T02:24:28.006Z,91.01
2018-01-15T02:25:27.989Z,91.20
2018-01-15T02:26:27.961Z,91.48
2018-01-15T02:27:27.934Z,91.10
2018-01-15T02:28:27.911Z,90.63
2018-01-15T02:29:27.887Z,90.82
2018-01-15T02:30:27.866Z,91.10
2018-01-15T02:31:27.846Z,91.20
2018-01-15T02:32:27.825Z,91.20
2018-01-15T02:33:27.803Z,91.39
2018-01-15T02:34:27.774Z,91.29
2018-01-15T02:35:27.753Z,91.29
2018-01-15T02:36:27.729Z,91.01
2018-01-15T02:37:27.705Z,90.91
2018-01-15T02:38:27.683Z,90.34
2018-01-15T02:39:27.666Z,90.34
2018-01-15T02:40:27.637Z,90.53
2018-01-15T02:41:27.611Z,90.63
2018-01-15T02:42:27.590Z,90.63
2018-01-15T02:43:27.569Z,90.91
2018-01-15T02:44:27.546Z,90.53
2018-01-15T02:45:27.524Z,90.63
2018-01-15T02:46:27.506Z,90.63
2018-01-15T02:47:27.475Z,90.44
2018-01-15T02:48:27.455Z,90.63
2018-01-15T02:49:27.427Z,90.82
2018-01-15T02:50:27.407Z,90.82
2018-01-15T02:51:27.385Z,90.91
2018-01-15T02:52:27.365Z,90.34
2018-01-15T02:53:27.343Z,90.82
2018-01-15T02:54:27.315Z,90.82
2018-01-15T02:55:27.293Z,90.34
2018-01-15T02:56:27.269Z,90.63
2018-01-15T02:57:27.246Z,90.91
2018-01-15T02:58:27.225Z,90.44
2018-01-15T02:59:27.203Z,91.39
2018-01-15T03:00:27.175Z,90.82
2018-01-15T03:01:27.158Z,90.72
2018-01-15T03:02:27.131Z,91.10
2018-01-15T03:03:27.112Z,90.44
2018-01-15T03:04:27.086Z,90.25
2018-01-15T03:05:27.062Z,90.63
2018-01-15T03:06:27.038Z,91.01
2018-01-15T03:07:27.015Z,90.82
2018-01-15T03:08:26.995Z,91.01
2018-01-15T03:09:26.980Z,90.63
2018-01-15T03:10:26.953Z,90.44
2018-01-15T03:11:26.928Z,90.82
2018-01-15T03:12:26.901Z,91.01
2018-01-15T03:13:26.878Z,90.91
2018-01-15T03:14:26.855Z,90.44
2018-01-15T03:15:26.835Z,90.34
2018-01-15T03:16:26.813Z,90.63
2018-01-15T03:17:26.785Z,90.44
2018-01-15T03:18:26.763Z,90.63
2018-01-15T03:19:26.740Z,90.44
2018-01-15T03:20:26.715Z,90.44
2018-01-15T03:21:26.703Z,90.63
2018-01-15T03:22:26.673Z,91.29
2018-01-15T03:23:26.649Z,90.82
2018-01-15T03:24:26.626Z,91.39
2018-01-15T03:25:26.601Z,90.82
2018-01-15T03:26:26.578Z,90.63
2018-01-15T03:27:26.554Z,90.63
2018-01-15T03:28:26.534Z,90.72
2018-01-15T03:29:26.518Z,90.63
2018-01-15T03:30:26.487Z,90.44
2018-01-15T03:31:26.468Z,91.01
2018-01-15T03:32:26.444Z,91.20
2018-01-15T03:33:26.419Z,91.67
2018-01-15T03:34:26.413Z,91.01
2018-01-15T03:35:26.371Z,90.91
2018-01-15T03:36:26.355Z,90.44
2018-01-15T03:37:26.335Z,90.72
2018-01-15T03:38:26.305Z,90.82
2018-01-15T03:39:26.285Z,91.01
2018-01-15T03:40:26.255Z,90.44
2018-01-15T03:41:26.234Z,90.63
2018-01-15T03:42:26.214Z,90.34
2018-01-15T03:43:26.191Z,90.91
2018-01-15T03:44:26.165Z,90.63
2018-01-15T03:45:26.142Z,90.34
2018-01-15T03:46:26.117Z,91.01
2018-01-15T03:47:26.105Z,90.72
2018-01-15T03:48:26.075Z,91.39
2018-01-15T03:49:26.052Z,91.10
2018-01-15T03:50:26.031Z,90.53
2018-01-15T03:51:26.005Z,90.58
2018-01-15T03:52:25.983Z,90.82
2018-01-15T03:53:25.962Z,90.82
2018-01-15T03:54:25.943Z,90.63
2018-01-15T03:55:25.911Z,90.72
2018-01-15T03:56:25.901Z,90.63
2018-01-15T03:57:25.868Z,90.72
2018-01-15T03:58:25.845Z,90.63
2018-01-15T03:59:25.825Z,90.53
2018-01-15T04:00:25.806Z,91.39
2018-01-15T04:01:25.774Z,91.29
2018-01-15T04:02:25.756Z,90.86
2018-01-15T04:03:25.730Z,90.44
2018-01-15T04:04:25.704Z,90.72
2018-01-15T04:05:25.683Z,90.63
2018-01-15T04:06:25.663Z,90.82
2018-01-15T04:07:25.639Z,90.67
2018-01-15T04:08:25.615Z,91.24
2018-01-15T04:09:25.608Z,90.53
2018-01-15T04:10:25.569Z,90.67
2018-01-15T04:11:25.546Z,90.53
2018-01-15T04:12:25.523Z,91.20
2018-01-15T04:13:25.500Z,90.58
2018-01-15T04:14:25.477Z,90.58
2018-01-15T04:15:25.454Z,90.16
2018-01-15T04:16:25.435Z,90.63
2018-01-15T04:17:25.412Z,90.82
2018-01-15T04:18:25.385Z,90.63
2018-01-15T04:19:25.364Z,91.01
2018-01-15T04:20:25.339Z,91.05
2018-01-15T04:21:25.316Z,90.96
2018-01-15T04:22:25.294Z,90.82
2018-01-15T04:23:25.275Z,90.96
2018-01-15T04:24:25.253Z,91.01
2018-01-15T04:25:25.224Z,90.48
2018-01-15T04:26:25.205Z,90.63
2018-01-15T04:27:25.181Z,90.58
2018-01-15T04:28:25.165Z,90.67
2018-01-15T04:29:25.134Z,91.05
2018-01-15T04:30:25.109Z,91.15
2018-01-15T04:31:25.094Z,91.01
2018-01-15T04:32:25.065Z,91.05
2018-01-15T04:33:25.044Z,90.96
2018-01-15T04:34:25.026Z,90.77
2018-01-15T04:35:24.998Z,90.86
2018-01-15T04:36:24.975Z,90.91
2018-01-15T04:37:24.951Z,90.86
2018-01-15T04:38:24.927Z,90.82
2018-01-15T04:39:24.903Z,90.86
2018-01-15T04:40:24.890Z,90.86
2018-01-15T04:41:24.860Z,91.24
2018-01-15T04:42:24.840Z,90.86
2018-01-15T04:43:24.815Z,91.34
2018-01-15T04:44:24.793Z,91.24
2018-01-15T04:45:24.768Z,91.15
2018-01-15T04:46:24.745Z,91.24
2018-01-15T04:47:24.724Z,91.05
2018-01-15T04:48:24.697Z,91.05
2018-01-15T04:49:24.675Z,91.05
2018-01-15T04:50:24.651Z,91.34
2018-01-15T04:51:24.627Z,91.24
2018-01-15T04:52:24.605Z,91.24
2018-01-15T04:53:24.585Z,91.34
2018-01-15T04:54:24.565Z,91.53
2018-01-15T04:55:24.538Z,91.72
2018-01-15T04:56:24.514Z,91.53
2018-01-15T04:57:24.490Z,91.53
2018-01-15T04:58:24.474Z,91.62
2018-01-15T04:59:24.448Z,91.34
2018-01-15T05:00:24.425Z,91.53
2018-01-15T05:01:24.402Z,91.24
2018-01-15T05:02:24.380Z,91.15
2018-01-15T05:03:24.359Z,91.81
2018-01-15T05:04:24.332Z,91.81
2018-01-15T05:05:24.317Z,91.81
2018-01-15T05:06:24.290Z,91.81
2018-01-15T05:07:24.265Z,91.72
2018-01-15T05:08:24.244Z,91.81
2018-01-15T05:09:24.225Z,92.00
2018-01-15T05:10:24.193Z,91.53
2018-01-15T05:11:24.170Z,92.10
2018-01-15T05:12:24.148Z,91.62
2018-01-15T05:13:24.124Z,91.81
2018-01-15T05:14:24.102Z,92.00
2018-01-15T05:15:24.078Z,91.81
2018-01-15T05:16:24.061Z,91.91
2018-01-15T05:17:24.035Z,92.47
2018-01-15T05:18:24.014Z,92.29
2018-01-15T05:19:23.988Z,91.72
2018-01-15T05:20:23.982Z,91.81
2018-01-15T05:21:23.942Z,91.62
2018-01-15T05:22:23.920Z,92.29
2018-01-15T05:23:23.902Z,92.10
2018-01-15T05:24:23.875Z,92.10
2018-01-15T05:25:23.856Z,91.53
2018-01-15T05:26:23.832Z,92.10
2018-01-15T05:27:23.855Z,91.72
2018-01-15T05:28:23.786Z,91.72
2018-01-15T05:29:23.765Z,91.81
2018-01-15T05:30:23.744Z,91.91
2018-01-15T05:31:23.715Z,91.91
2018-01-15T05:32:23.695Z,91.72
2018-01-15T05:33:23.674Z,91.81
2018-01-15T05:34:23.646Z,92.10
2018-01-15T05:35:23.629Z,91.91
2018-01-15T05:36:23.601Z,91.81
2018-01-15T05:37:23.582Z,92.19
2018-01-15T05:38:23.555Z,92.19
2018-01-15T05:39:23.531Z,91.91
2018-01-15T05:40:23.515Z,92.10
2018-01-15T05:41:23.487Z,91.81
2018-01-15T05:42:23.464Z,92.10
2018-01-15T05:43:23.443Z,92.10
2018-01-15T05:44:23.417Z,92.29
2018-01-15T05:45:23.404Z,92.29
2018-01-15T05:46:23.372Z,92.10
2018-01-15T05:47:23.358Z,92.29
2018-01-15T05:48:23.325Z,91.91
2018-01-15T05:49:23.305Z,91.81
2018-01-15T05:50:23.284Z,92.19
2018-01-15T05:51:23.268Z,92.66
2018-01-15T05:52:23.245Z,92.85
2018-01-15T05:53:23.251Z,92.57
2018-01-15T05:54:23.188Z,92.76
2018-01-15T05:55:23.165Z,92.76
2018-01-15T05:56:23.141Z,92.47
2018-01-15T05:57:23.120Z,92.85
2018-01-15T05:58:23.097Z,92.47
2018-01-15T05:59:23.075Z,92.57
2018-01-15T06:00:23.058Z,92.66
2018-01-15T06:01:23.031Z,92.57
2018-01-15T06:02:23.020Z,92.66
2018-01-15T06:03:22.986Z,92.57
2018-01-15T06:04:22.960Z,92.85
2018-01-15T06:05:22.949Z,92.76
2018-01-15T06:06:22.915Z,92.57
2018-01-15T06:07:22.896Z,92.57
2018-01-15T06:08:22.872Z,92.47
2018-01-15T06:09:22.850Z,92.47
2018-01-15T06:10:22.831Z,92.76
2018-01-15T06:11:22.801Z,92.57
2018-01-15T06:12:22.778Z,92.57
2018-01-15T06:13:22.754Z,92.76
2018-01-15T06:14:22.735Z,92.57
2018-01-15T06:15:22.720Z,92.85
2018-01-15T06:16:22.697Z,92.76
2018-01-15T06:17:22.667Z,92.66
2018-01-15T06:18:22.642Z,92.66
2018-01-15T06:19:22.618Z,92.57
2018-01-15T06:20:22.597Z,92.47
2018-01-15T06:21:22.576Z,92.19
2018-01-15T06:22:22.554Z,92.10
2018-01-15T06:23:22.540Z,92.66
2018-01-15T06:24:22.505Z,92.10
2018-01-15T06:25:22.489Z,92.52
2018-01-15T06:26:22.460Z,92.14
2018-01-15T06:27:22.438Z,92.66
2018-01-15T06:28:22.412Z,92.85
2018-01-15T06:29:22.401Z,92.61
2018-01-15T06:30:22.377Z,92.76
2018-01-15T06:31:22.345Z,92.47
2018-01-15T06:32:22.325Z,92.76
2018-01-15T06:33:22.309Z,92.29
2018-01-15T06:34:22.277Z,92.38
2018-01-15T06:35:22.253Z,92.14
2018-01-15T06:36:22.235Z,92.52
2018-01-15T06:37:22.208Z,92.71
2018-01-15T06:38:22.196Z,92.43
2018-01-15T06:39:22.164Z,92.33
2018-01-15T06:40:22.142Z,92.29
2018-01-15T06:41:22.118Z,92.61
2018-01-15T06:42:22.094Z,92.80
2018-01-15T06:43:22.071Z,92.71
2018-01-15T06:44:22.050Z,92.47
2018-01-15T06:45:22.028Z,92.76
2018-01-15T06:46:22.003Z,92.61
2018-01-15T06:47:21.980Z,92.52
2018-01-15T06:48:21.959Z,92.52
2018-01-15T06:49:21.935Z,92.71
2018-01-15T06:50:21.918Z,92.61
2018-01-15T06:51:21.889Z,92.90
2018-01-15T06:52:21.865Z,92.71
2018-01-15T06:53:21.842Z,92.33
2018-01-15T06:54:21.826Z,92.43
2018-01-15T06:55:21.803Z,92.80
2018-01-15T06:56:21.776Z,92.61
2018-01-15T06:57:21.756Z,92.71
2018-01-15T06:58:21.731Z,92.61
2018-01-15T06:59:21.710Z,92.52
2018-01-15T07:00:21.686Z,92.52
2018-01-15T07:01:21.666Z,92.80
2018-01-15T07:02:21.640Z,92.52
2018-01-15T07:03:21.616Z,92.14
2018-01-15T07:04:21.595Z,92.52
2018-01-15T07:05:21.571Z,92.99
2018-01-15T07:06:21.553Z,92.80
2018-01-15T07:07:21.527Z,93.46
2018-01-15T07:08:21.506Z,93.27
2018-01-15T07:09:21.478Z,92.90
2018-01-15T07:10:21.461Z,93.37
2018-01-15T07:11:21.433Z,93.18
2018-01-15T07:12:21.411Z,93.37
2018-01-15T07:13:21.392Z,93.18
2018-01-15T07:14:21.374Z,92.80
2018-01-15T07:15:21.346Z,92.80
2018-01-15T07:16:21.324Z,93.37
2018-01-15T07:17:21.298Z,92.90
2018-01-15T07:18:21.275Z,92.99
2018-01-15T07:19:21.254Z,92.80
2018-01-15T07:20:21.231Z,92.90
2018-01-15T07:21:21.211Z,93.46
2018-01-15T07:22:21.185Z,93.56
2018-01-15T07:23:21.167Z,93.27
2018-01-15T07:24:21.144Z,93.27
2018-01-15T07:25:21.124Z,93.37
2018-01-15T07:26:21.104Z,93.08
2018-01-15T07:27:21.073Z,93.18
2018-01-15T07:28:21.049Z,93.18
2018-01-15T07:29:21.029Z,93.46
2018-01-15T07:30:21.006Z,93.37
2018-01-15T07:31:20.987Z,93.27
2018-01-15T07:32:20.964Z,93.56
2018-01-15T07:33:20.936Z,93.46
2018-01-15T07:34:20.914Z,93.18
2018-01-15T07:35:20.895Z,93.37
2018-01-15T07:36:20.866Z,92.90
2018-01-15T07:37:20.845Z,93.18
2018-01-15T07:38:20.825Z,92.99
2018-01-15T07:39:20.797Z,93.46
2018-01-15T07:40:20.786Z,93.94
2018-01-15T07:41:20.755Z,93.46
2018-01-15T07:42:20.731Z,94.23
2018-01-15T07:43:20.707Z,94.13
2018-01-15T07:44:20.694Z,93.94
2018-01-15T07:45:20.666Z,94.13
2018-01-15T07:46:20.643Z,93.56
2018-01-15T07:47:20.618Z,93.94
2018-01-15T07:48:20.596Z,93.94
2018-01-15T07:49:20.575Z,93.94
2018-01-15T07:50:20.556Z,93.84
2018-01-15T07:51:20.525Z,93.94
2018-01-15T07:52:20.504Z,93.75
2018-01-15T07:53:20.491Z,94.13
2018-01-15T07:54:20.458Z,94.04
2018-01-15T07:55:20.437Z,94.23
2018-01-15T07:56:20.413Z,94.13
2018-01-15T07:57:20.398Z,94.51
2018-01-15T07:58:20.370Z,94.23
2018-01-15T07:59:20.345Z,94.23
2018-01-15T08:00:20.325Z,93.56
2018-01-15T08:01:20.306Z,94.04
2018-01-15T08:02:20.279Z,93.75
2018-01-15T08:03:20.253Z,94.04
2018-01-15T08:04:20.231Z,94.04
2018-01-15T08:05:20.219Z,94.04
2018-01-15T08:06:20.188Z,93.94
2018-01-15T08:07:20.166Z,94.13
2018-01-15T08:08:20.143Z,93.75
2018-01-15T08:09:20.120Z,94.70
2018-01-15T08:10:20.108Z,94.23
2018-01-15T08:11:20.080Z,93.94
2018-01-15T08:12:20.056Z,94.23
2018-01-15T08:13:20.040Z,93.75
2018-01-15T08:14:20.006Z,94.27
2018-01-15T08:15:19.984Z,94.27
2018-01-15T08:16:19.961Z,93.94
2018-01-15T08:17:19.938Z,94.08
2018-01-15T08:18:19.920Z,94.18
2018-01-15T08:19:19.896Z,94.23
2018-01-15T08:20:19.887Z,93.80
2018-01-15T08:21:19.848Z,93.89
2018-01-15T08:22:19.838Z,94.27
2018-01-15T08:23:19.802Z,93.89
2018-01-15T08:24:19.784Z,93.42
2018-01-15T08:25:19.757Z,93.32
2018-01-15T08:26:19.735Z,93.99
2018-01-15T08:27:19.715Z,93.61
2018-01-15T08:28:19.691Z,93.99
2018-01-15T08:29:19.667Z,93.99
2018-01-15T08:30:19.647Z,93.61
2018-01-15T08:31:19.633Z,93.89
2018-01-15T08:32:19.604Z,93.80
2018-01-15T08:33:19.580Z,93.23
2018-01-15T08:34:19.556Z,93.04
2018-01-15T08:35:19.534Z,93.04
2018-01-15T08:36:19.508Z,93.80
2018-01-15T08:37:19.491Z,93.23
2018-01-15T08:38:19.465Z,93.04
2018-01-15T08:39:19.449Z,93.13
2018-01-15T08:40:19.420Z,93.51
2018-01-15T08:41:19.398Z,93.51
2018-01-15T08:42:19.376Z,93.23
2018-01-15T08:43:19.356Z,93.42
2018-01-15T08:44:19.335Z,93.13
2018-01-15T08:45:19.310Z,93.23
2018-01-15T08:46:19.287Z,93.42
2018-01-15T08:47:19.264Z,92.94
2018-01-15T08:48:19.246Z,92.94
2018-01-15T08:49:19.224Z,93.42
2018-01-15T08:50:19.200Z,93.23
2018-01-15T08:51:19.179Z,93.51
2018-01-15T08:52:19.153Z,92.94
2018-01-15T08:53:19.130Z,92.94
2018-01-15T08:54:19.115Z,93.51
2018-01-15T08:55:19.086Z,92.94
2018-01-15T08:56:19.063Z,92.94
2018-01-15T08:57:19.058Z,92.76
2018-01-15T08:58:19.016Z,93.61
2018-01-15T08:59:18.996Z,93.23
2018-01-15T09:00:18.973Z,93.51
2018-01-15T09:01:18.974Z,92.38
2018-01-15T09:02:18.926Z,92.66
2018-01-15T09:03:18.905Z,92.38
2018-01-15T09:04:18.886Z,92.76
2018-01-15T09:05:18.859Z,92.94
2018-01-15T09:06:18.847Z,92.76
2018-01-15T09:07:18.815Z,92.47
2018-01-15T09:08:18.797Z,92.71
2018-01-15T09:09:18.771Z,92.23
2018-01-15T09:10:18.749Z,92.33
2018-01-15T09:11:18.724Z,92.90
2018-01-15T09:12:18.701Z,92.23
2018-01-15T09:13:18.684Z,92.04
2018-01-15T09:14:18.664Z,92.61
2018-01-15T09:15:18.636Z,92.23
2018-01-15T09:16:18.615Z,91.95
2018-01-15T09:17:18.599Z,92.04
2018-01-15T09:18:18.573Z,91.85
2018-01-15T09:19:18.546Z,92.61
2018-01-15T09:20:18.525Z,92.61
2018-01-15T09:21:18.502Z,92.23
2018-01-15T09:22:18.487Z,92.23
2018-01-15T09:23:18.464Z,92.42
2018-01-15T09:24:18.439Z,92.23
2018-01-15T09:25:18.415Z,92.80
2018-01-15T09:26:18.390Z,92.61
2018-01-15T09:27:18.374Z,92.42
2018-01-15T09:28:18.351Z,92.61
2018-01-15T09:29:18.326Z,92.52
2018-01-15T09:30:18.303Z,92.33
2018-01-15T09:31:18.280Z,92.33
2018-01-15T09:32:18.259Z,92.14
2018-01-15T09:33:18.235Z,92.04
2018-01-15T09:34:18.216Z,92.42
2018-01-15T09:35:18.192Z,91.66
2018-01-15T09:36:18.176Z,92.04
2018-01-15T09:37:18.155Z,91.66
2018-01-15T09:38:18.128Z,92.04
2018-01-15T09:39:18.105Z,91.85
2018-01-15T09:40:18.085Z,92.42
2018-01-15T09:41:18.059Z,92.42
2018-01-15T09:42:18.035Z,92.04
2018-01-15T09:43:18.055Z,91.85
2018-01-15T09:44:17.997Z,92.04
2018-01-15T09:45:17.970Z,91.95
2018-01-15T09:46:17.954Z,92.14
2018-01-15T09:47:17.928Z,91.95
2018-01-15T09:48:17.909Z,92.04
2018-01-15T09:49:17.884Z,91.47
2018-01-15T09:50:17.862Z,91.95
2018-01-15T09:51:17.838Z,92.04
2018-01-15T09:52:17.826Z,91.85
2018-01-15T09:53:17.795Z,92.04
2018-01-15T09:54:17.778Z,92.33
2018-01-15T09:55:17.748Z,91.76
2018-01-15T09:56:17.726Z,92.42
2018-01-15T09:57:17.707Z,91.95
2018-01-15T09:58:17.683Z,92.23
2018-01-15T09:59:17.661Z,92.04
2018-01-15T10:00:17.644Z,91.57
2018-01-15T10:01:17.621Z,91.66
2018-01-15T10:02:17.596Z,91.47
2018-01-15T10:03:17.577Z,91.95
2018-01-15T10:04:17.553Z,91.38
2018-01-15T10:05:17.534Z,91.19
2018-01-15T10:06:17.515Z,91.19
2018-01-15T10:07:17.484Z,91.09
2018-01-15T10:08:17.462Z,91.57
2018-01-15T10:09:17.444Z,91.42
2018-01-15T10:10:17.420Z,91.42
2018-01-15T10:11:17.401Z,91.33
2018-01-15T10:12:17.383Z,91.61
2018-01-15T10:13:17.358Z,91.14
2018-01-15T10:14:17.335Z,91.52
2018-01-15T10:15:17.312Z,90.86
2018-01-15T10:16:17.296Z,90.76
2018-01-15T10:17:17.264Z,90.57
2018-01-15T10:18:17.245Z,91.42
2018-01-15T10:19:17.224Z,91.24
2018-01-15T10:20:17.197Z,91.14
2018-01-15T10:21:17.179Z,90.67
2018-01-15T10:22:17.157Z,90.95
2018-01-15T10:23:17.135Z,90.67
2018-01-15T10:24:17.110Z,90.48
2018-01-15T10:25:17.096Z,91.14
2018-01-15T10:26:17.075Z,90.76
2018-01-15T10:27:17.045Z,91.24
2018-01-15T10:28:17.026Z,90.67
2018-01-15T10:29:17.004Z,91.33
2018-01-15T10:30:16.985Z,90.86
2018-01-15T10:31:16.959Z,91.42
2018-01-15T10:32:16.935Z,90.95
2018-01-15T10:33:16.916Z,90.86
2018-01-15T10:34:16.895Z,90.76
2018-01-15T10:35:16.880Z,90.86
2018-01-15T10:36:16.860Z,90.86
2018-01-15T10:37:16.827Z,90.48
2018-01-15T10:38:16.812Z,91.05
2018-01-15T10:39:16.785Z,90.86
2018-01-15T10:40:16.766Z,90.95
2018-01-15T10:41:16.748Z,90.57
2018-01-15T10:42:16.721Z,90.00
2018-01-15T10:43:16.699Z,90.10
2018-01-15T10:44:16.674Z,90.00
2018-01-15T10:45:16.669Z,90.10
2018-01-15T10:46:16.636Z,89.62
2018-01-15T10:47:16.610Z,89.58
2018-01-15T10:48:16.590Z,90.24
2018-01-15T10:49:16.569Z,89.58
2018-01-15T10:50:16.550Z,89.43
2018-01-15T10:51:16.525Z,88.96
2018-01-15T10:52:16.511Z,89.06
2018-01-15T10:53:16.483Z,89.29
2018-01-15T10:54:16.461Z,89.39
2018-01-15T10:55:16.439Z,89.10
2018-01-15T10:56:16.416Z,88.91
2018-01-15T10:57:16.429Z,88.81
2018-01-15T10:58:16.375Z,88.91
2018-01-15T10:59:16.351Z,88.72
2018-01-15T11:00:16.327Z,88.53
2018-01-15T11:01:16.308Z,88.81
2018-01-15T11:02:16.284Z,89.10
2018-01-15T11:03:16.263Z,88.43
2018-01-15T11:04:16.244Z,88.62
2018-01-15T11:05:16.225Z,89.00
2018-01-15T11:06:16.203Z,88.72
2018-01-15T11:07:16.182Z,88.62
2018-01-15T11:08:16.161Z,88.72
2018-01-15T11:09:16.135Z,88.81
2018-01-15T11:10:16.116Z,88.62
2018-01-15T11:11:16.089Z,88.91
2018-01-15T11:12:16.074Z,88.62
2018-01-15T11:13:16.047Z,88.06
2018-01-15T11:14:16.066Z,88.06
2018-01-15T11:15:16.004Z,87.77
2018-01-15T11:16:15.984Z,87.68
2018-01-15T11:17:15.963Z,87.87
2018-01-15T11:18:15.979Z,87.77
2018-01-15T11:19:15.951Z,87.68
2018-01-15T11:20:15.899Z,87.39
2018-01-15T11:21:15.875Z,87.49
2018-01-15T11:22:15.855Z,87.39
2018-01-15T11:23:15.835Z,86.91
2018-01-15T11:24:15.811Z,86.72
2018-01-15T11:25:15.793Z,86.72
2018-01-15T11:26:15.773Z,87.15
2018-01-15T11:27:15.749Z,87.43
2018-01-15T11:28:15.777Z,86.30
2018-01-15T11:29:15.706Z,86.20
2018-01-15T11:30:15.688Z,85.91
2018-01-15T11:31:15.663Z,85.72
2018-01-15T11:32:15.645Z,86.20
2018-01-15T11:33:15.629Z,86.20
2018-01-15T11:34:15.597Z,86.58
2018-01-15T11:35:15.578Z,86.20
2018-01-15T11:36:15.554Z,86.30
2018-01-15T11:37:15.533Z,86.39
2018-01-15T11:38:15.514Z,86.49
2018-01-15T11:39:15.495Z,86.39
2018-01-15T11:40:15.471Z,86.77
2018-01-15T11:41:15.446Z,86.39
2018-01-15T11:42:15.461Z,86.39
2018-01-15T11:43:15.405Z,86.20
2018-01-15T11:44:15.384Z,86.68
2018-01-15T11:45:15.364Z,86.87
2018-01-15T11:46:15.343Z,86.49
2018-01-15T11:47:15.521Z,86.30
2018-01-15T11:48:15.301Z,86.68
2018-01-15T11:49:15.277Z,86.77
2018-01-15T11:50:15.256Z,87.24
2018-01-15T11:51:15.230Z,86.96
2018-01-15T11:52:15.212Z,87.15
2018-01-15T11:53:15.193Z,86.77
2018-01-15T11:54:15.170Z,86.96
2018-01-15T11:55:15.146Z,87.15
2018-01-15T11:56:15.130Z,87.24
2018-01-15T11:57:15.109Z,86.39
2018-01-15T11:58:15.084Z,87.15
2018-01-15T11:59:15.065Z,86.96
2018-01-15T12:00:15.042Z,87.15
2018-01-15T12:01:15.025Z,86.96
2018-01-15T12:02:15.004Z,86.30
2018-01-15T12:03:14.979Z,86.30
2018-01-15T12:04:14.955Z,87.05
2018-01-15T12:05:14.936Z,86.96
2018-01-15T12:06:14.912Z,87.05
2018-01-15T12:07:14.903Z,87.15
2018-01-15T12:08:14.879Z,86.77
2018-01-15T12:09:14.852Z,87.34
2018-01-15T12:10:14.831Z,86.96
2018-01-15T12:11:14.811Z,86.96
2018-01-15T12:12:14.783Z,86.77
2018-01-15T12:13:14.764Z,86.30
2018-01-15T12:14:14.745Z,86.68
2018-01-15T12:15:14.726Z,87.43
2018-01-15T12:16:14.700Z,86.68
2018-01-15T12:17:14.686Z,86.68
2018-01-15T12:18:14.669Z,86.77
2018-01-15T12:19:14.640Z,87.05
2018-01-15T12:20:14.668Z,87.15
2018-01-15T12:21:14.600Z,87.43
2018-01-15T12:22:14.575Z,87.43
2018-01-15T12:23:14.551Z,87.05
2018-01-15T12:24:14.535Z,87.53
2018-01-15T12:25:14.514Z,87.43
2018-01-15T12:26:14.494Z,87.43
2018-01-15T12:27:14.466Z,87.91
2018-01-15T12:28:14.447Z,87.43
2018-01-15T12:29:14.424Z,88.48
2018-01-15T12:30:14.408Z,88.10
2018-01-15T12:31:14.387Z,87.62
2018-01-15T12:32:14.361Z,87.34
2018-01-15T12:33:14.342Z,87.82
2018-01-15T12:34:14.323Z,87.34
2018-01-15T12:35:14.313Z,87.82
2018-01-15T12:36:14.277Z,87.53
2018-01-15T12:37:14.265Z,88.20
2018-01-15T12:38:14.236Z,87.91
2018-01-15T12:39:14.214Z,87.43
2018-01-15T12:40:14.198Z,87.62
2018-01-15T12:41:14.172Z,87.72
2018-01-15T12:42:14.152Z,88.39
2018-01-15T12:43:14.136Z,88.48
2018-01-15T12:44:14.143Z,88.29
2018-01-15T12:45:14.084Z,88.01
2018-01-15T12:46:14.072Z,88.01
2018-01-15T12:47:14.045Z,87.91
2018-01-15T12:48:14.021Z,88.20
2018-01-15T12:49:14.003Z,87.24
2018-01-15T12:50:13.988Z,87.24
2018-01-15T12:51:13.956Z,87.72
2018-01-15T12:52:13.940Z,87.72